createdAt,value
2019-03-22T00:01:13.924Z,99.90
2019-03-22T00:03:40.533Z,99.90
2019-03-22T00:06:07.240Z,99.90
2019-03-22T00:08:33.716Z,99.90
2019-03-22T00:11:00.165Z,99.90
2019-03-22T00:13:26.796Z,99.90
2019-03-22T00:15:53.214Z,99.90
2019-03-22T00:18:19.880Z,99.90
2019-03-22T00:20:46.410Z,99.90
2019-03-22T00:23:14.190Z,99.90
2019-03-22T00:25:40.833Z,99.90
2019-03-22T00:28:07.501Z,99.90
2019-03-22T00:30:34.016Z,99.90
2019-03-22T00:33:00.601Z,99.90
2019-03-22T00:35:26.982Z,99.90
2019-03-22T00:37:53.664Z,99.90
2019-03-22T00:40:20.156Z,99.90
2019-03-22T00:42:46.811Z,99.90
2019-03-22T00:45:13.415Z,99.90
2019-03-22T00:47:39.993Z,99.90
2019-03-22T00:50:11.901Z,99.90
2019-03-22T00:52:38.381Z,99.90
2019-03-22T00:55:05.906Z,99.90
2019-03-22T00:57:32.415Z,99.90
2019-03-22T00:59:58.893Z,99.90
2019-03-22T01:02:25.348Z,99.90
2019-03-22T01:04:51.779Z,99.90
2019-03-22T01:07:18.279Z,99.90
2019-03-22T01:09:44.785Z,99.90
2019-03-22T01:12:11.339Z,99.90
2019-03-22T01:14:37.769Z,99.90
2019-03-22T01:17:04.305Z,99.90
2019-03-22T01:19:30.753Z,99.90
2019-03-22T01:21:57.251Z,99.90
2019-03-22T01:24:23.760Z,99.90
2019-03-22T01:26:50.229Z,99.90
2019-03-22T01:29:16.779Z,99.90
2019-03-22T01:31:43.199Z,99.90
2019-03-22T01:34:09.508Z,99.90
2019-03-22T01:36:35.944Z,99.90
2019-03-22T01:39:05.243Z,99.90
2019-03-22T01:41:31.680Z,99.90
2019-03-22T01:43:58.070Z,99.90
2019-03-22T01:46:24.779Z,99.90
2019-03-22T01:48:51.441Z,99.90
2019-03-22T01:51:17.869Z,99.90
2019-03-22T01:53:44.294Z,99.90
2019-03-22T01:56:10.831Z,99.90
2019-03-22T01:58:37.135Z,99.90
2019-03-22T02:01:03.873Z,99.90
2019-03-22T02:03:30.489Z,99.90
2019-03-22T02:05:56.937Z,99.90
2019-03-22T02:08:23.501Z,99.90
2019-03-22T02:10:50.139Z,99.90
2019-03-22T02:13:16.445Z,99.90
2019-03-22T02:15:42.848Z,99.90
2019-03-22T02:18:09.361Z,99.90
2019-03-22T02:20:35.759Z,99.90
2019-03-22T02:23:02.377Z,99.90
2019-03-22T02:25:29.011Z,99.90
2019-03-22T02:28:03.819Z,99.90
2019-03-22T02:30:23.555Z,99.90
2019-03-22T02:32:49.936Z,99.90
2019-03-22T02:35:28.211Z,99.90
2019-03-22T02:37:44.906Z,99.90
2019-03-22T02:40:12.170Z,99.90
2019-03-22T02:42:38.779Z,99.90
2019-03-22T02:45:11.799Z,99.90
2019-03-22T02:47:38.581Z,99.90
2019-03-22T02:50:18.175Z,99.90
2019-03-22T02:52:39.990Z,99.90
2019-03-22T02:55:09.388Z,99.90
2019-03-22T02:57:35.939Z,99.90
2019-03-22T03:00:13.165Z,99.90
2019-03-22T03:02:39.607Z,99.90
2019-03-22T03:05:08.315Z,99.90
2019-03-22T03:07:35.066Z,99.90
2019-03-22T03:10:03.505Z,99.90
2019-03-22T03:12:30.036Z,99.90
2019-03-22T03:14:56.340Z,99.90
2019-03-22T03:17:22.745Z,99.90
2019-03-22T03:19:49.312Z,99.90
2019-03-22T03:22:15.825Z,99.90
2019-03-22T03:24:42.167Z,99.90
2019-03-22T03:27:08.892Z,99.90
2019-03-22T03:29:35.307Z,99.90
2019-03-22T03:32:01.948Z,99.90
2019-03-22T03:34:28.382Z,99.90
2019-03-22T03:36:54.760Z,99.90
2019-03-22T03:39:21.316Z,99.90
2019-03-22T03:41:47.791Z,99.90
2019-03-22T03:44:14.221Z,99.90
2019-03-22T03:46:40.745Z,99.90
2019-03-22T03:49:07.261Z,99.90
2019-03-22T03:51:33.662Z,99.90
2019-03-22T03:54:00.113Z,99.90
2019-03-22T03:56:26.632Z,99.90
2019-03-22T03:58:53.208Z,99.90
2019-03-22T04:01:19.853Z,99.90
2019-03-22T04:03:46.330Z,99.90
2019-03-22T04:06:12.773Z,99.90
2019-03-22T04:08:39.166Z,99.90
2019-03-22T04:11:05.809Z,99.90
2019-03-22T04:13:32.257Z,99.90
2019-03-22T04:15:58.817Z,99.90
2019-03-22T04:18:25.324Z,99.90
2019-03-22T04:20:51.734Z,99.90
2019-03-22T04:23:18.058Z,99.90
2019-03-22T04:25:44.474Z,99.90
2019-03-22T04:28:10.768Z,99.90
2019-03-22T04:30:37.079Z,99.90
2019-03-22T04:33:06.651Z,99.90
2019-03-22T04:35:32.237Z,99.90
2019-03-22T04:37:58.628Z,99.90
2019-03-22T04:40:28.082Z,99.90
2019-03-22T04:42:54.904Z,99.90
2019-03-22T04:45:22.836Z,99.90
2019-03-22T04:47:54.883Z,99.90
2019-03-22T04:50:21.690Z,99.90
2019-03-22T04:52:49.719Z,99.90
2019-03-22T04:55:17.935Z,99.90
2019-03-22T04:57:45.571Z,99.90
2019-03-22T05:00:12.542Z,99.90
2019-03-22T05:02:40.577Z,99.90
2019-03-22T05:05:09.504Z,99.90
2019-03-22T05:07:36.204Z,99.90
2019-03-22T05:10:05.600Z,99.90
2019-03-22T05:12:32.642Z,99.90
2019-03-22T05:14:59.510Z,99.90
2019-03-22T05:17:26.753Z,99.90
2019-03-22T05:19:56.055Z,99.90
2019-03-22T05:22:27.043Z,99.90
2019-03-22T05:24:56.221Z,99.90
2019-03-22T05:27:24.375Z,99.90
2019-03-22T05:29:54.881Z,99.90
2019-03-22T05:32:21.441Z,99.90
2019-03-22T05:34:48.136Z,99.90
2019-03-22T05:37:14.541Z,99.90
2019-03-22T05:39:41.182Z,99.90
2019-03-22T05:42:07.546Z,99.90
2019-03-22T05:44:34.240Z,99.90
2019-03-22T05:47:01.348Z,99.90
2019-03-22T05:49:27.870Z,99.90
2019-03-22T05:51:54.264Z,99.90
2019-03-22T05:54:20.811Z,99.90
2019-03-22T05:56:47.296Z,99.90
2019-03-22T05:59:14.278Z,99.90
2019-03-22T06:01:40.907Z,99.90
2019-03-22T06:04:07.475Z,99.90
2019-03-22T06:06:34.062Z,99.90
2019-03-22T06:09:00.890Z,99.90
2019-03-22T06:11:27.515Z,99.90
2019-03-22T06:13:54.805Z,99.90
2019-03-22T06:16:21.372Z,99.90
2019-03-22T06:18:50.362Z,99.90
2019-03-22T06:21:16.264Z,99.90
2019-03-22T06:23:42.654Z,99.90
2019-03-22T06:26:09.222Z,99.90
2019-03-22T06:28:35.880Z,99.90
2019-03-22T06:31:02.438Z,99.90
2019-03-22T06:33:28.936Z,99.90
2019-03-22T06:35:55.260Z,99.90
2019-03-22T06:38:21.680Z,99.90
2019-03-22T06:40:48.254Z,99.90
2019-03-22T06:43:14.663Z,99.90
2019-03-22T06:45:41.221Z,99.90
2019-03-22T06:48:07.863Z,99.90
2019-03-22T06:50:34.306Z,99.90
2019-03-22T06:53:00.618Z,99.90
2019-03-22T06:55:27.365Z,99.90
2019-03-22T06:57:53.904Z,99.90
2019-03-22T07:00:20.433Z,99.90
2019-03-22T07:02:46.810Z,99.90
2019-03-22T07:05:13.788Z,99.90
2019-03-22T07:07:40.514Z,99.90
2019-03-22T07:10:09.988Z,99.90
2019-03-22T07:12:36.467Z,99.90
2019-03-22T07:15:05.173Z,99.90
2019-03-22T07:17:31.603Z,99.90
2019-03-22T07:19:58.192Z,99.90
2019-03-22T07:22:24.914Z,99.90
2019-03-22T07:24:51.439Z,99.90
2019-03-22T07:27:17.983Z,99.90
2019-03-22T07:29:44.463Z,99.90
2019-03-22T07:32:11.016Z,99.90
2019-03-22T07:34:37.590Z,99.90
2019-03-22T07:37:04.228Z,99.90
2019-03-22T07:39:30.675Z,99.90
2019-03-22T07:41:57.242Z,99.90
2019-03-22T07:44:23.966Z,99.90
2019-03-22T07:46:50.413Z,99.90
2019-03-22T07:49:16.847Z,99.90
2019-03-22T07:51:43.412Z,99.90
2019-03-22T07:54:10.015Z,99.90
2019-03-22T07:56:36.643Z,99.90
2019-03-22T07:59:03.260Z,99.90
2019-03-22T08:01:29.573Z,99.90
2019-03-22T08:03:56.206Z,99.90
2019-03-22T08:06:22.722Z,99.90
2019-03-22T08:08:49.280Z,99.90
2019-03-22T08:11:15.775Z,99.90
2019-03-22T08:13:42.242Z,99.90
2019-03-22T08:16:08.709Z,99.90
2019-03-22T08:18:35.554Z,99.90
2019-03-22T08:21:01.972Z,99.90
2019-03-22T08:23:28.387Z,99.90
2019-03-22T08:25:54.815Z,99.90
2019-03-22T08:28:21.227Z,99.90
2019-03-22T08:30:47.962Z,99.90
2019-03-22T08:33:14.480Z,99.90
2019-03-22T08:35:41.225Z,99.90
2019-03-22T08:38:07.747Z,99.90
2019-03-22T08:40:34.231Z,99.90
2019-03-22T08:43:00.866Z,99.90
2019-03-22T08:45:27.383Z,99.90
2019-03-22T08:47:53.953Z,99.90
2019-03-22T08:50:20.692Z,99.90
2019-03-22T08:52:47.376Z,99.90
2019-03-22T08:55:13.986Z,99.90
2019-03-22T08:57:40.292Z,99.90
2019-03-22T09:00:10.902Z,99.90
2019-03-22T09:02:44.177Z,99.90
2019-03-22T09:05:10.821Z,99.90
2019-03-22T09:07:37.433Z,99.90
2019-03-22T09:10:11.498Z,99.90
2019-03-22T09:12:38.134Z,99.90
2019-03-22T09:15:07.238Z,99.90
2019-03-22T09:17:33.767Z,99.90
2019-03-22T09:20:00.449Z,99.90
2019-03-22T09:22:26.950Z,99.90
2019-03-22T09:24:53.615Z,99.90
2019-03-22T09:27:20.339Z,99.90
2019-03-22T09:29:47.513Z,99.90
2019-03-22T09:32:14.210Z,99.90
2019-03-22T09:34:40.775Z,99.90
2019-03-22T09:37:08.959Z,99.90
2019-03-22T09:39:35.780Z,99.90
2019-03-22T09:42:02.427Z,99.90
2019-03-22T09:44:42.372Z,99.90
2019-03-22T09:46:57.387Z,99.90
2019-03-22T09:49:24.190Z,99.90
2019-03-22T09:51:50.657Z,99.90
2019-03-22T09:54:17.256Z,99.90
2019-03-22T09:56:47.328Z,99.90
2019-03-22T09:59:12.323Z,99.90
2019-03-22T10:01:38.867Z,99.90
2019-03-22T10:04:05.176Z,99.90
2019-03-22T10:06:31.690Z,99.90
2019-03-22T10:08:58.396Z,99.90
2019-03-22T10:11:24.813Z,99.90
2019-03-22T10:13:51.383Z,99.90
2019-03-22T10:16:17.721Z,99.90
2019-03-22T10:18:44.234Z,99.90
2019-03-22T10:21:21.824Z,99.90
2019-03-22T10:23:39.056Z,99.90
2019-03-22T10:26:05.704Z,99.90
2019-03-22T10:28:32.092Z,99.90
2019-03-22T10:30:58.621Z,99.90
2019-03-22T10:33:25.076Z,99.90
2019-03-22T10:35:51.896Z,99.90
2019-03-22T10:38:30.628Z,99.90
2019-03-22T10:40:47.549Z,99.90
2019-03-22T10:43:14.075Z,99.90
2019-03-22T10:45:40.601Z,99.90
2019-03-22T10:48:07.237Z,99.90
2019-03-22T10:50:33.881Z,99.90
2019-03-22T10:53:00.539Z,99.90
2019-03-22T10:55:30.146Z,99.90
2019-03-22T10:57:55.682Z,99.90
2019-03-22T11:00:22.327Z,99.90
2019-03-22T11:02:48.797Z,99.90
2019-03-22T11:05:15.412Z,99.90
2019-03-22T11:07:42.147Z,99.90
2019-03-22T11:10:13.601Z,99.90
2019-03-22T11:12:40.458Z,99.90
2019-03-22T11:15:11.080Z,99.90
2019-03-22T11:17:37.699Z,99.90
2019-03-22T11:20:08.362Z,99.90
2019-03-22T11:22:34.942Z,99.90
2019-03-22T11:25:01.808Z,99.90
2019-03-22T11:27:28.242Z,99.90
2019-03-22T11:29:54.861Z,98.40
2019-03-22T11:32:21.567Z,97.40
2019-03-22T11:34:48.077Z,97.40
2019-03-22T11:37:14.847Z,94.60
2019-03-22T11:39:41.402Z,94.30
2019-03-22T11:42:07.992Z,92.90
2019-03-22T11:44:34.433Z,92.90
2019-03-22T11:47:00.970Z,92.40
2019-03-22T11:49:27.708Z,92.50
2019-03-22T11:51:54.147Z,91.50
2019-03-22T11:54:20.672Z,90.70
2019-03-22T11:56:47.201Z,91.40
2019-03-22T11:59:13.767Z,90.10
2019-03-22T12:01:40.443Z,88.60
2019-03-22T12:04:06.965Z,90.20
2019-03-22T12:06:33.712Z,88.00
2019-03-22T12:09:00.312Z,84.00
2019-03-22T12:11:26.883Z,85.20
2019-03-22T12:13:53.501Z,86.50
2019-03-22T12:16:20.060Z,86.70
2019-03-22T12:18:46.538Z,84.20
2019-03-22T12:21:13.127Z,83.80
2019-03-22T12:23:39.710Z,82.90
2019-03-22T12:26:06.566Z,79.10
2019-03-22T12:28:33.381Z,79.40
2019-03-22T12:31:00.276Z,79.10
2019-03-22T12:33:26.907Z,78.00
2019-03-22T14:56:55.437Z,47.70
2019-03-22T14:59:21.966Z,47.70
2019-03-22T15:01:48.288Z,45.80
2019-03-22T15:04:14.697Z,45.10
2019-03-22T15:06:41.125Z,44.80
2019-03-22T15:09:07.728Z,45.70
2019-03-22T15:11:34.366Z,45.60
2019-03-22T15:14:02.800Z,45.60
2019-03-22T15:16:37.445Z,46.00
2019-03-22T15:19:05.809Z,45.00
2019-03-22T15:21:50.676Z,44.20
2019-03-22T15:24:22.303Z,44.60
2019-03-22T15:26:53.375Z,44.90
2019-03-22T15:29:30.479Z,44.60
2019-03-22T15:32:15.148Z,44.60
2019-03-22T15:34:46.777Z,44.00
2019-03-22T15:37:21.524Z,44.00
2019-03-22T15:39:58.788Z,44.40
2019-03-22T15:42:25.433Z,44.90
2019-03-22T15:44:53.976Z,44.60
2019-03-22T15:47:20.749Z,43.80
2019-03-22T15:49:47.283Z,43.60
2019-03-22T15:52:13.830Z,43.30
2019-03-22T15:54:40.492Z,42.50
2019-03-22T15:57:08.877Z,42.80
2019-03-22T15:59:35.577Z,42.30
2019-03-22T16:02:02.194Z,42.30
2019-03-22T16:04:30.133Z,41.90
2019-03-22T16:06:56.636Z,41.90
2019-03-22T16:09:23.285Z,41.10
2019-03-22T16:11:49.725Z,41.40
2019-03-22T16:14:18.427Z,41.90
2019-03-22T16:16:45.272Z,42.20
2019-03-22T16:19:11.863Z,42.20
2019-03-22T16:21:38.615Z,42.00
2019-03-22T16:24:05.269Z,43.40
2019-03-22T16:26:31.912Z,45.00
2019-03-22T16:28:58.704Z,45.20
2019-03-22T16:31:25.218Z,45.60
2019-03-22T16:33:54.866Z,46.60
2019-03-22T16:36:20.442Z,46.50
2019-03-22T16:38:47.054Z,47.40
2019-03-22T16:41:13.710Z,48.60
2019-03-22T16:43:40.395Z,49.70
2019-03-22T16:46:09.114Z,49.30
2019-03-22T16:48:35.727Z,50.10
2019-03-22T16:51:02.395Z,50.90
2019-03-22T16:53:28.704Z,51.30
2019-03-22T16:55:55.363Z,51.90
2019-03-22T16:58:21.944Z,52.40
2019-03-22T17:00:49.991Z,52.90
2019-03-22T17:03:16.808Z,52.20
2019-03-22T17:05:43.512Z,52.30
2019-03-22T17:08:10.179Z,53.40
2019-03-22T17:10:36.685Z,53.10
2019-03-22T17:13:03.771Z,53.20
2019-03-22T17:15:30.378Z,53.20
2019-03-22T17:17:57.113Z,53.80
2019-03-22T17:20:23.644Z,53.70
2019-03-22T17:22:50.318Z,53.90
2019-03-22T17:25:16.819Z,54.50
2019-03-22T17:27:43.477Z,54.00
2019-03-22T17:30:10.522Z,54.10
2019-03-22T17:32:37.172Z,54.50
2019-03-22T17:35:06.603Z,55.00
2019-03-22T17:37:33.057Z,54.60
2019-03-22T17:39:59.553Z,54.50
2019-03-22T17:42:26.164Z,54.70
2019-03-22T17:44:52.745Z,54.60
2019-03-22T17:47:19.296Z,55.00
2019-03-22T17:49:48.325Z,54.70
2019-03-22T17:52:14.309Z,54.60
2019-03-22T17:54:40.857Z,55.00
2019-03-22T17:57:07.427Z,55.20
2019-03-22T17:59:33.956Z,55.30
2019-03-22T18:02:00.591Z,55.40
2019-03-22T18:04:27.309Z,55.40
2019-03-22T18:06:53.778Z,55.40
2019-03-22T18:09:20.380Z,56.70
2019-03-22T18:11:49.357Z,56.00
2019-03-22T18:14:16.166Z,56.60
2019-03-22T18:16:42.688Z,56.40
2019-03-22T18:19:09.483Z,56.30
2019-03-22T18:21:36.342Z,56.50
2019-03-22T18:24:03.123Z,56.50
2019-03-22T18:26:31.888Z,56.60
2019-03-22T18:28:58.555Z,56.90
2019-03-22T18:31:25.181Z,57.20
2019-03-22T18:33:51.467Z,57.40
2019-03-22T18:36:17.856Z,57.30
2019-03-22T18:38:44.417Z,57.60
2019-03-22T18:41:11.162Z,57.20
2019-03-22T18:43:37.656Z,57.50
2019-03-22T18:46:04.308Z,57.80
2019-03-22T18:48:31.079Z,57.80
2019-03-22T18:50:57.855Z,58.70
2019-03-22T18:53:24.578Z,58.50
2019-03-22T18:55:51.139Z,59.20
2019-03-22T18:58:17.733Z,59.80
2019-03-22T19:00:44.632Z,60.10
2019-03-22T19:03:11.468Z,60.60
2019-03-22T19:05:38.209Z,60.90
2019-03-22T19:08:04.920Z,61.40
2019-03-22T19:10:31.740Z,61.50
2019-03-22T19:12:58.278Z,60.80
2019-03-22T19:15:24.888Z,61.10
2019-03-22T19:17:51.499Z,61.50
2019-03-22T19:20:18.121Z,62.40
2019-03-22T19:22:44.815Z,62.40
2019-03-22T19:25:11.849Z,62.30
2019-03-22T19:27:38.698Z,62.30
2019-03-22T19:30:13.452Z,63.50
2019-03-22T19:32:40.252Z,63.60
2019-03-22T19:35:08.360Z,65.10
2019-03-22T19:37:35.304Z,67.00
2019-03-22T19:40:09.910Z,67.70
2019-03-22T19:42:36.625Z,71.40
2019-03-22T19:45:07.505Z,72.80
2019-03-22T19:47:34.272Z,76.40
2019-03-22T19:50:01.021Z,75.30
2019-03-22T19:52:27.858Z,80.50
2019-03-22T19:54:54.411Z,85.20
2019-03-22T19:57:21.087Z,90.00
2019-03-22T19:59:47.848Z,90.50
2019-03-22T20:02:16.662Z,93.60
2019-03-22T20:04:43.314Z,95.50
2019-03-22T20:07:10.052Z,95.50
2019-03-22T20:09:37.784Z,97.90
2019-03-22T20:12:04.448Z,97.40
2019-03-22T20:14:30.980Z,99.90
2019-03-22T20:16:57.850Z,99.90
2019-03-22T20:19:24.699Z,99.90
2019-03-22T20:21:51.285Z,99.90
2019-03-22T20:24:18.057Z,99.90
2019-03-22T20:26:44.635Z,99.90
2019-03-22T20:29:11.290Z,99.90
2019-03-22T20:31:38.127Z,99.90
2019-03-22T20:34:04.923Z,99.90
2019-03-22T20:36:31.768Z,99.90
2019-03-22T20:38:58.307Z,99.90
2019-03-22T20:41:25.157Z,99.90
2019-03-22T20:43:51.810Z,99.90
2019-03-22T20:46:18.351Z,99.90
2019-03-22T20:48:44.923Z,99.90
2019-03-22T20:51:11.527Z,99.90
2019-03-22T20:53:38.196Z,99.90
2019-03-22T20:56:04.843Z,99.90
2019-03-22T20:58:31.572Z,99.90
2019-03-22T21:01:00.465Z,99.90
2019-03-22T21:03:27.023Z,99.90
2019-03-22T21:05:53.590Z,99.90
2019-03-22T21:08:20.258Z,99.90
2019-03-22T21:10:47.012Z,99.90
2019-03-22T21:13:13.496Z,99.90
2019-03-22T21:15:40.263Z,99.90
2019-03-22T21:18:07.267Z,99.90
2019-03-22T21:20:34.013Z,99.90
2019-03-22T21:23:00.723Z,99.90
2019-03-22T21:25:27.480Z,99.90
2019-03-22T21:27:54.234Z,99.90
2019-03-22T21:30:22.539Z,99.90
2019-03-22T21:32:49.207Z,99.90
2019-03-22T21:35:22.406Z,99.90
2019-03-22T21:37:44.693Z,99.90
2019-03-22T21:40:11.935Z,99.90
2019-03-22T21:42:38.858Z,99.90
2019-03-22T21:45:07.423Z,99.90
2019-03-22T21:47:34.804Z,99.90
2019-03-22T21:50:01.426Z,99.90
2019-03-22T21:52:28.324Z,99.90
2019-03-22T21:54:54.862Z,99.90
2019-03-22T21:57:21.394Z,99.90
2019-03-22T21:59:48.089Z,99.90
2019-03-22T22:02:14.759Z,99.90
2019-03-22T22:04:41.376Z,99.90
2019-03-22T22:07:09.247Z,99.90
2019-03-22T22:09:35.922Z,99.90
2019-03-22T22:12:02.920Z,99.90
2019-03-22T22:14:40.226Z,99.90
2019-03-22T22:16:58.017Z,99.90
2019-03-22T22:19:24.753Z,99.90
2019-03-22T22:21:51.170Z,99.90
2019-03-22T22:24:17.668Z,99.90
2019-03-22T22:26:44.199Z,99.90
2019-03-22T22:29:10.747Z,99.90
2019-03-22T22:31:37.290Z,99.90
2019-03-22T22:34:03.837Z,99.90
2019-03-22T22:36:30.598Z,99.90
2019-03-22T22:38:57.154Z,99.90
2019-03-22T22:41:23.570Z,99.90
2019-03-22T22:43:50.104Z,99.90
2019-03-22T22:46:17.139Z,99.90
2019-03-22T22:48:44.068Z,99.90
2019-03-22T22:51:10.340Z,99.90
2019-03-22T22:53:37.075Z,99.90
2019-03-22T22:56:03.970Z,99.90
2019-03-22T22:58:30.454Z,99.90
2019-03-22T23:00:56.985Z,99.90
2019-03-22T23:03:23.393Z,99.90
2019-03-22T23:05:49.871Z,99.90
2019-03-22T23:08:16.378Z,99.90
2019-03-22T23:10:43.113Z,99.90
2019-03-22T23:13:09.483Z,99.90
2019-03-22T23:15:36.058Z,99.90
2019-03-22T23:18:02.730Z,99.90
2019-03-22T23:20:29.152Z,99.90
2019-03-22T23:22:55.484Z,99.90
2019-03-22T23:25:21.993Z,99.90
2019-03-22T23:27:48.590Z,99.90
2019-03-22T23:30:15.556Z,99.90
2019-03-22T23:32:42.052Z,99.90
2019-03-22T23:35:08.739Z,99.90
2019-03-22T23:37:35.294Z,99.90
2019-03-22T23:40:03.692Z,99.90
2019-03-22T23:42:30.294Z,99.90
2019-03-22T23:44:56.817Z,99.90
2019-03-22T23:47:23.178Z,99.90
2019-03-22T23:49:49.738Z,99.90
2019-03-22T23:52:16.182Z,99.90
2019-03-22T23:54:42.774Z,99.90
2019-03-22T23:57:09.493Z,99.90
2019-03-22T23:59:36.022Z,99.90
